Time;durP1;ratioP1;P1;durP2;ratioP2;P2;SDS_P1;SDS_P2;PMS_P1;PMS_P2;Temp;Humidity;BMP_temperature;BMP_pressure;BME280_temperature;BME280_humidity;BME280_pressure;Samples;Min_cycle;Max_cycle;Signal;HPM_P1;HPM_P2
2021/06/13 00:01:23;;;;;;;6.37;3.72;;;;;;;17.66;74.28;98688.66;1717853;83;21740;-76
2021/06/13 00:03:51;;;;;;;10.48;4.37;;;;;;;17.63;74.24;98684.64;1716638;82;21000;-81
2021/06/13 00:06:26;;;;;;;8.65;4.40;;;;;;;17.62;74.35;98678.88;1759104;80;20996;-79
2021/06/13 00:09:01;;;;;;;8.88;4.75;;;;;;;17.59;74.46;98673.48;1690521;83;21076;-76
2021/06/13 00:11:29;;;;;;;4.65;3.70;;;;;;;17.58;74.50;98671.08;1712905;82;21013;-75
2021/06/13 00:13:56;;;;;;;6.95;4.30;;;;;;;17.58;74.45;98664.12;1753365;79;21949;-78
2021/06/13 00:16:22;;;;;;;9.73;3.90;;;;;;;17.52;74.48;98656.72;1778434;77;21046;-77
2021/06/13 00:18:52;;;;;;;14.33;5.40;;;;;;;17.36;74.55;98662.02;1774562;79;20975;-74
2021/06/13 00:21:19;;;;;;;8.65;4.60;;;;;;;17.12;75.01;98650.31;1779286;77;21004;-73
2021/06/13 00:23:46;;;;;;;10.68;4.33;;;;;;;16.96;75.68;98648.34;1782013;77;21107;-77
2021/06/13 00:26:18;;;;;;;8.48;4.30;;;;;;;16.90;76.29;98645.13;1773853;79;21078;-77
2021/06/13 00:28:48;;;;;;;6.70;3.62;;;;;;;16.91;76.62;98641.16;1778391;78;21012;-73
2021/06/13 00:31:16;;;;;;;8.85;3.85;;;;;;;16.94;76.78;98642.39;1779423;80;21010;-72
2021/06/13 00:33:47;;;;;;;5.33;4.03;;;;;;;16.94;76.67;98634.82;1789074;78;20991;-73
2021/06/13 00:36:14;;;;;;;7.65;3.85;;;;;;;16.95;76.90;98637.83;1759377;80;21598;-73
2021/06/13 00:38:42;;;;;;;10.82;4.10;;;;;;;16.96;76.88;98629.67;1777898;80;21123;-74
2021/06/13 00:41:12;;;;;;;6.58;4.90;;;;;;;16.95;76.84;98625.30;1751385;80;21003;-73
2021/06/13 00:43:42;;;;;;;5.78;4.08;;;;;;;16.88;76.72;98628.02;1780206;78;21107;-74
2021/06/13 00:46:18;;;;;;;8.35;4.40;;;;;;;16.71;76.93;98626.10;1779575;78;20992;-71
2021/06/13 00:48:44;;;;;;;6.75;3.72;;;;;;;16.58;77.53;98622.79;1783176;78;21511;-72
2021/06/13 00:51:10;;;;;;;6.25;4.03;;;;;;;16.50;78.05;98616.95;1777777;80;21112;-74
2021/06/13 00:53:39;;;;;;;6.37;4.00;;;;;;;16.51;78.29;98617.96;1781150;77;21094;-72
2021/06/13 00:56:10;;;;;;;4.97;3.67;;;;;;;16.55;78.36;98613.25;1793668;78;21500;-74
2021/06/13 00:58:37;;;;;;;7.70;4.15;;;;;;;16.61;78.27;98607.34;1748967;77;21070;-74
2021/06/13 01:08:12;;;;;;;5.22;4.62;;;;;;;16.70;77.66;98601.45;1766528;79;21118;-73
2021/06/13 01:11:07;;;;;;;5.85;4.65;;;;;;;16.68;77.59;98599.06;1759006;79;21012;-75
2021/06/13 01:14:05;;;;;;;8.48;4.90;;;;;;;16.65;77.54;98599.84;1756231;80;21052;-74
2021/06/13 01:17:07;;;;;;;8.58;4.05;;;;;;;16.62;77.33;98597.22;1779000;79;21036;-73
2021/06/13 01:20:03;;;;;;;10.00;4.70;;;;;;;16.59;77.36;98594.41;1760018;80;21169;-72
2021/06/13 01:23:24;;;;;;;6.45;4.78;;;;;;;16.55;77.41;98584.05;1768039;80;21009;-72
2021/06/13 01:26:14;;;;;;;6.95;3.90;;;;;;;16.53;77.49;98586.41;1749724;80;21082;-72
2021/06/13 01:29:09;;;;;;;6.30;4.42;;;;;;;16.52;77.46;98586.80;1755610;80;21098;-72
2021/06/13 01:31:45;;;;;;;4.67;3.95;;;;;;;16.49;77.48;98587.56;1767390;80;21159;-73
2021/06/13 01:34:25;;;;;;;11.28;4.90;;;;;;;16.46;77.27;98590.53;1767551;79;21757;-72
2021/06/13 01:37:01;;;;;;;6.00;4.53;;;;;;;16.43;77.17;98580.16;1751906;79;21090;-74
2021/06/13 01:39:30;;;;;;;7.92;5.00;;;;;;;16.41;77.18;98576.98;1768642;80;21024;-72
2021/06/13 01:42:01;;;;;;;8.40;4.65;;;;;;;16.40;77.40;98572.01;1771908;78;21032;-73
2021/06/13 01:44:32;;;;;;;6.20;5.25;;;;;;;16.38;77.36;98572.17;1769893;79;21092;-73
2021/06/13 01:46:59;;;;;;;9.93;5.10;;;;;;;16.38;77.39;98579.11;1769111;80;21138;-72
2021/06/13 01:49:26;;;;;;;6.30;4.85;;;;;;;16.38;77.60;98573.55;1748580;80;21059;-72
2021/06/13 01:51:55;;;;;;;9.08;5.67;;;;;;;16.41;77.58;98571.42;1739613;80;21072;-73
2021/06/13 01:54:22;;;;;;;7.50;5.20;;;;;;;16.40;77.61;98566.45;1763007;80;21044;-73
2021/06/13 01:56:53;;;;;;;10.35;5.55;;;;;;;16.38;77.64;98571.58;1755424;79;21068;-71
2021/06/13 01:59:22;;;;;;;6.12;4.87;;;;;;;16.37;77.78;98565.02;1769418;79;21133;-71
2021/06/13 02:01:58;;;;;;;5.60;4.45;;;;;;;16.33;77.67;98564.98;1749878;80;21044;-73
2021/06/13 02:04:29;;;;;;;6.90;4.20;;;;;;;16.21;77.95;98551.36;1731727;80;21541;-72
2021/06/13 02:07:00;;;;;;;7.10;5.33;;;;;;;16.16;78.56;98558.07;1765885;79;20997;-73
2021/06/13 02:09:30;;;;;;;6.50;5.03;;;;;;;16.15;78.58;98562.04;1706684;81;21532;-72
2021/06/13 02:12:04;;;;;;;26.68;6.90;;;;;;;16.11;78.97;98550.08;1703581;82;20996;-73
2021/06/13 02:14:34;;;;;;;6.87;5.17;;;;;;;16.12;79.21;98548.91;1699898;82;21000;-74
2021/06/13 02:17:05;;;;;;;7.55;5.20;;;;;;;16.15;79.31;98542.01;1720007;81;21136;-73
2021/06/13 02:19:38;;;;;;;8.00;5.15;;;;;;;16.18;79.17;98538.46;1768164;80;21027;-72
2021/06/13 02:22:06;;;;;;;6.50;5.00;;;;;;;16.21;79.15;98536.88;1767489;80;21516;-73
2021/06/13 02:24:36;;;;;;;5.10;4.55;;;;;;;16.24;79.19;98533.33;1767900;79;21794;-71
2021/06/13 02:27:04;;;;;;;24.52;6.17;;;;;;;16.28;79.13;98533.38;1740143;79;21051;-72
2021/06/13 02:29:31;;;;;;;8.35;5.37;;;;;;;16.32;79.07;98535.61;1742285;79;21073;-73
2021/06/13 02:32:03;;;;;;;10.35;5.08;;;;;;;16.37;78.98;98532.48;1768010;78;21167;-73
2021/06/13 02:34:30;;;;;;;7.67;4.53;;;;;;;16.42;79.01;98527.95;1773057;79;21064;-73
2021/06/13 02:37:00;;;;;;;12.15;4.87;;;;;;;16.48;78.93;98525.59;1763072;79;22149;-73
2021/06/13 02:39:26;;;;;;;9.88;5.78;;;;;;;16.55;78.87;98524.86;1760362;79;21047;-72
2021/06/13 02:41:54;;;;;;;9.93;5.45;;;;;;;16.59;78.73;98520.72;1773400;79;21002;-72
2021/06/13 02:44:23;;;;;;;11.43;5.47;;;;;;;16.60;78.60;98524.50;1768500;80;21025;-73
2021/06/13 02:46:56;;;;;;;8.88;4.92;;;;;;;16.56;78.75;98523.69;1773694;79;21078;-72
2021/06/13 02:49:22;;;;;;;8.60;5.15;;;;;;;16.53;78.63;98520.30;1762276;79;21160;-73
2021/06/13 02:51:55;;;;;;;10.23;4.90;;;;;;;16.44;78.86;98523.40;1748087;80;21508;-73
2021/06/13 02:54:21;;;;;;;7.33;4.85;;;;;;;16.38;79.16;98520.75;1775196;78;21283;-72
2021/06/13 02:56:57;;;;;;;13.62;4.92;;;;;;;16.39;79.52;98520.97;1763310;80;21026;-74
2021/06/13 02:59:48;;;;;;;5.92;5.15;;;;;;;16.45;79.62;98520.81;1750896;80;21486;-73
2021/06/13 03:02:22;;;;;;;5.45;4.72;;;;;;;16.51;79.53;98523.44;1765282;79;21780;-71
2021/06/13 03:04:48;;;;;;;6.47;4.42;;;;;;;16.58;79.45;98518.52;1750816;80;21074;-71
2021/06/13 03:07:19;;;;;;;9.00;4.80;;;;;;;16.64;79.43;98513.41;1756051;80;21034;-72
2021/06/13 03:09:48;;;;;;;6.72;5.45;;;;;;;16.70;79.34;98510.47;1744073;80;21043;-72
2021/06/13 03:12:18;;;;;;;5.80;4.75;;;;;;;16.78;79.30;98514.92;1736684;80;21100;-71
2021/06/13 03:14:46;;;;;;;6.65;4.75;;;;;;;16.85;79.12;98514.17;1753161;80;21214;-72
2021/06/13 03:17:14;;;;;;;8.85;4.28;;;;;;;16.95;78.88;98514.02;1759172;80;21502;-74
2021/06/13 03:19:42;;;;;;;6.62;4.03;;;;;;;17.06;78.58;98518.86;1759782;80;21064;-72
2021/06/13 03:22:12;;;;;;;6.55;4.47;;;;;;;17.17;78.34;98518.93;1708701;80;21053;-72
2021/06/13 03:24:40;;;;;;;5.65;4.62;;;;;;;17.27;77.76;98513.43;1710259;80;21582;-71
2021/06/13 03:27:12;;;;;;;8.90;5.17;;;;;;;17.35;77.54;98517.64;1736287;80;21558;-73
2021/06/13 03:29:43;;;;;;;9.85;5.33;;;;;;;17.42;77.37;98523.22;1760480;80;21098;-72
2021/06/13 03:32:12;;;;;;;8.58;4.95;;;;;;;17.48;77.18;98526.44;1752595;79;22438;-72
2021/06/13 03:34:41;;;;;;;10.78;5.42;;;;;;;17.49;77.17;98524.66;1728436;80;21083;-73
2021/06/13 03:37:10;;;;;;;9.78;5.33;;;;;;;17.49;77.05;98516.89;1737759;81;21019;-72
2021/06/13 03:39:41;;;;;;;8.03;4.67;;;;;;;17.54;76.99;98524.09;1765376;78;21912;-72
2021/06/13 03:42:19;;;;;;;6.20;4.70;;;;;;;17.58;77.00;98526.27;1764388;79;21201;-73
2021/06/13 03:47:41;;;;;;;8.33;5.75;;;;;;;17.70;76.70;98519.55;1777639;78;21020;-74
2021/06/13 03:50:10;;;;;;;10.00;5.12;;;;;;;17.76;76.58;98521.56;1765801;79;21045;-73
2021/06/13 03:52:38;;;;;;;8.33;4.92;;;;;;;17.83;76.31;98519.98;1762249;79;21463;-76
2021/06/13 03:55:07;;;;;;;6.50;4.70;;;;;;;17.86;76.25;98521.38;1683334;82;21024;-73
2021/06/13 03:57:34;;;;;;;11.45;4.55;;;;;;;17.90;76.23;98513.03;1760182;79;20982;-75
2021/06/13 04:00:04;;;;;;;8.30;4.83;;;;;;;17.92;76.10;98514.84;1756740;80;21145;-74
2021/06/13 04:02:32;;;;;;;9.88;4.72;;;;;;;17.95;75.68;98511.84;1771853;78;21009;-73
2021/06/13 04:05:00;;;;;;;10.38;5.05;;;;;;;17.98;75.56;98515.26;1761573;79;21105;-74
2021/06/13 04:07:27;;;;;;;11.78;5.33;;;;;;;18.05;75.54;98515.87;1753568;78;21489;-75
2021/06/13 04:09:55;;;;;;;6.80;5.72;;;;;;;18.08;75.46;98513.06;1765169;79;21083;-75
2021/06/13 04:12:22;;;;;;;8.88;5.58;;;;;;;18.14;75.29;98507.94;1759866;80;21060;-72
2021/06/13 04:14:51;;;;;;;9.93;5.58;;;;;;;18.19;74.90;98510.33;1769071;79;21039;-72
2021/06/13 04:17:19;;;;;;;8.18;5.00;;;;;;;18.23;74.62;98506.96;1758886;79;21265;-73
2021/06/13 04:19:52;;;;;;;8.58;5.05;;;;;;;18.28;74.41;98505.76;1758905;79;21031;-73
2021/06/13 04:22:22;;;;;;;7.28;5.22;;;;;;;18.29;74.37;98503.78;1753944;80;21085;-73
2021/06/13 04:24:52;;;;;;;6.62;4.55;;;;;;;18.30;74.41;98503.97;1763498;80;20997;-74
2021/06/13 04:27:24;;;;;;;7.05;5.05;;;;;;;18.34;74.40;98503.36;1782627;78;21046;-73
2021/06/13 04:29:59;;;;;;;8.00;5.25;;;;;;;18.37;74.46;98501.97;1759890;79;21799;-73
2021/06/13 04:32:30;;;;;;;8.98;4.95;;;;;;;18.41;74.38;98497.78;1728531;81;21057;-72
2021/06/13 04:34:57;;;;;;;7.12;4.80;;;;;;;18.47;74.29;98496.80;1741097;80;21009;-73
2021/06/13 04:37:26;;;;;;;6.55;5.37;;;;;;;18.54;74.15;98497.39;1763318;79;21611;-76
2021/06/13 04:39:52;;;;;;;7.92;5.28;;;;;;;18.61;74.31;98497.40;1768736;79;21560;-72
2021/06/13 04:42:22;;;;;;;7.47;5.37;;;;;;;18.69;74.10;98497.58;1760949;79;21581;-72
2021/06/13 04:44:48;;;;;;;14.25;4.83;;;;;;;18.78;73.80;98500.56;1765786;79;21503;-72
2021/06/13 04:47:15;;;;;;;8.25;4.87;;;;;;;18.87;73.74;98507.13;1775387;79;21186;-73
2021/06/13 04:49:44;;;;;;;8.00;4.42;;;;;;;18.92;74.11;98501.91;1752191;80;21047;-75
2021/06/13 04:52:13;;;;;;;8.28;4.75;;;;;;;19.00;73.83;98503.30;1753150;80;21512;-72
2021/06/13 04:55:05;;;;;;;9.95;4.97;;;;;;;19.05;73.15;98499.51;1719208;82;21187;-73
2021/06/13 04:57:59;;;;;;;10.00;5.90;;;;;;;19.09;73.15;98504.47;1729724;81;21122;-73
2021/06/13 05:00:29;;;;;;;7.72;5.17;;;;;;;19.12;72.34;98504.30;1768496;79;21051;-73
2021/06/13 05:02:57;;;;;;;10.93;5.10;;;;;;;19.13;72.88;98500.89;1769584;78;21024;-73
2021/06/13 05:05:23;;;;;;;9.23;5.33;;;;;;;19.12;72.75;98497.33;1778559;79;21173;-74
2021/06/13 05:07:50;;;;;;;7.15;5.37;;;;;;;19.15;72.81;98508.27;1774188;80;21141;-73
2021/06/13 05:10:24;;;;;;;6.97;4.67;;;;;;;19.18;72.58;98499.89;1770731;78;21119;-72
2021/06/13 05:18:41;;;;;;;10.03;5.03;;;;;;;19.31;71.68;98503.64;1759601;79;21067;-73
2021/06/13 05:21:08;;;;;;;11.08;4.92;;;;;;;19.34;71.42;98502.83;1770090;80;21152;-71
2021/06/13 05:23:43;;;;;;;6.40;4.03;;;;;;;19.38;71.15;98502.82;1768848;79;21036;-71
2021/06/13 05:26:11;;;;;;;5.67;4.60;;;;;;;19.42;70.73;98496.60;1769085;80;21076;-72
2021/06/13 05:28:40;;;;;;;5.92;3.83;;;;;;;19.46;70.37;98502.36;1765952;78;21035;-71
2021/06/13 05:31:13;;;;;;;7.15;4.58;;;;;;;19.52;69.79;98494.95;1774772;79;21523;-71
2021/06/13 05:33:42;;;;;;;10.78;3.65;;;;;;;19.55;69.99;98487.19;1769825;79;22116;-73
2021/06/13 05:36:09;;;;;;;4.78;3.65;;;;;;;19.62;70.05;98485.73;1764841;80;21566;-72
2021/06/13 05:38:38;;;;;;;7.12;3.92;;;;;;;19.69;69.48;98482.91;1745874;80;21073;-73
2021/06/13 05:41:05;;;;;;;5.50;3.50;;;;;;;19.76;69.63;98481.27;1703861;83;21056;-72
2021/06/13 05:43:33;;;;;;;8.30;3.35;;;;;;;19.86;69.51;98478.23;1769466;80;21063;-72
2021/06/13 05:46:02;;;;;;;6.50;3.40;;;;;;;19.94;68.33;98473.56;1767107;78;21104;-70
2021/06/13 05:48:32;;;;;;;6.22;3.40;;;;;;;20.02;68.20;98476.31;1738540;80;21024;-70
2021/06/13 05:51:02;;;;;;;4.55;3.65;;;;;;;20.09;68.20;98470.71;1765224;79;21087;-72
2021/06/13 05:53:29;;;;;;;7.40;3.77;;;;;;;20.17;67.75;98473.64;1771174;80;21071;-72
2021/06/13 05:55:56;;;;;;;5.30;3.22;;;;;;;20.26;67.85;98477.97;1767406;80;21486;-73
2021/06/13 05:58:23;;;;;;;9.60;3.45;;;;;;;20.34;67.00;98473.91;1771200;79;21073;-74
2021/06/13 06:00:53;;;;;;;3.40;3.00;;;;;;;20.39;66.08;98476.26;1764902;79;21065;-73
2021/06/13 06:03:19;;;;;;;9.30;3.45;;;;;;;20.46;66.13;98472.60;1776491;79;21558;-72
2021/06/13 06:05:46;;;;;;;4.50;2.92;;;;;;;20.54;65.44;98479.72;1777851;79;21043;-72
2021/06/13 06:08:17;;;;;;;8.18;2.80;;;;;;;20.61;65.36;98486.47;1768192;80;20987;-72
2021/06/13 06:10:49;;;;;;;5.15;3.30;;;;;;;20.66;64.21;98488.20;1765936;79;21142;-73
2021/06/13 06:13:21;;;;;;;4.87;3.45;;;;;;;20.68;63.56;98485.79;1769119;79;21025;-74
2021/06/13 06:15:51;;;;;;;5.62;3.80;;;;;;;20.70;63.42;98497.16;1771470;79;21087;-75
2021/06/13 06:18:18;;;;;;;7.62;3.80;;;;;;;20.69;63.55;98492.19;1761740;78;20994;-72
2021/06/13 06:20:46;;;;;;;12.30;3.62;;;;;;;20.68;63.58;98492.78;1767541;80;21040;-72
2021/06/13 06:23:12;;;;;;;6.00;3.25;;;;;;;20.68;63.24;98496.98;1775881;79;21774;-74
2021/06/13 06:25:38;;;;;;;6.65;3.52;;;;;;;20.71;63.83;98494.57;1750425;80;21022;-73
2021/06/13 06:28:12;;;;;;;;;;;;;;;20.74;63.78;98483.94;1762114;80;21456;-73
2021/06/13 06:30:38;;;;;;;4.37;3.83;;;;;;;20.81;64.40;98482.48;1756523;81;20163;-73
2021/06/13 06:33:08;;;;;;;4.47;2.83;;;;;;;20.88;63.73;98490.00;1766586;78;21525;-73
2021/06/13 06:35:37;;;;;;;4.15;3.33;;;;;;;20.92;62.86;98481.75;1765036;78;21116;-71
2021/06/13 06:38:05;;;;;;;10.23;3.67;;;;;;;20.98;62.54;98489.73;1771856;79;21277;-72
2021/06/13 06:40:33;;;;;;;12.23;3.77;;;;;;;21.04;62.68;98486.05;1782836;77;21035;-73
2021/06/13 06:42:59;;;;;;;5.45;3.10;;;;;;;21.10;62.58;98485.59;1769812;78;21172;-72
2021/06/13 06:45:26;;;;;;;5.40;4.15;;;;;;;21.16;62.20;98485.31;1771153;79;21082;-71
2021/06/13 06:47:52;;;;;;;4.47;3.60;;;;;;;21.21;62.91;98485.45;1759648;79;21526;-73
2021/06/13 06:50:19;;;;;;;4.87;3.62;;;;;;;21.30;63.17;98490.56;1763148;78;21090;-73
2021/06/13 06:52:47;;;;;;;6.42;3.90;;;;;;;21.37;62.10;98492.68;1768934;79;21051;-72
2021/06/13 06:55:17;;;;;;;7.40;3.40;;;;;;;21.43;62.82;98489.42;1770947;80;21016;-73
2021/06/13 06:57:49;;;;;;;6.87;3.67;;;;;;;21.51;62.56;98497.91;1766636;78;21081;-73
2021/06/13 07:00:17;;;;;;;7.65;4.25;;;;;;;21.57;62.74;98496.82;1770553;78;21111;-74
2021/06/13 07:02:48;;;;;;;5.90;3.95;;;;;;;21.63;63.75;98493.13;1772686;80;21064;-73
2021/06/13 07:05:18;;;;;;;4.85;3.40;;;;;;;21.71;63.05;98498.05;1775478;79;21636;-74
2021/06/13 07:11:02;;;;;;;7.12;4.05;;;;;;;21.80;62.92;98493.36;1687595;81;21074;-73
2021/06/13 07:13:29;;;;;;;8.15;3.90;;;;;;;21.87;62.85;98496.03;1690333;82;21099;-72
2021/06/13 07:16:10;;;;;;;5.08;3.90;;;;;;;21.92;62.16;98492.59;1766169;79;21019;-73
2021/06/13 07:18:45;;;;;;;9.50;4.30;;;;;;;21.99;62.90;98493.27;1758599;80;20990;-73
2021/06/13 07:21:12;;;;;;;6.87;3.40;;;;;;;22.12;64.49;98498.30;1767574;80;21064;-74
2021/06/13 07:23:39;;;;;;;6.65;4.12;;;;;;;22.21;63.15;98499.94;1774744;79;21071;-73
2021/06/13 07:26:09;;;;;;;5.28;3.72;;;;;;;22.20;63.03;98493.36;1764688;77;21306;-74
2021/06/13 07:28:35;;;;;;;8.43;4.22;;;;;;;22.19;62.84;98499.59;1743984;79;21069;-74
2021/06/13 07:31:02;;;;;;;11.63;4.87;;;;;;;22.11;61.94;98497.49;1776709;78;21625;-78
2021/06/13 07:33:29;;;;;;;6.08;4.10;;;;;;;21.96;62.11;98503.92;1772297;80;21075;-74
2021/06/13 07:35:58;;;;;;;9.18;4.28;;;;;;;21.80;62.18;98505.97;1781172;79;21130;-72
2021/06/13 07:38:27;;;;;;;6.30;4.60;;;;;;;21.70;62.55;98500.65;1791646;77;21474;-73
2021/06/13 07:40:54;;;;;;;7.15;4.67;;;;;;;21.73;63.83;98506.03;1807770;77;21166;-75
2021/06/13 07:43:21;;;;;;;7.12;4.00;;;;;;;21.76;62.64;98501.78;1766092;79;21060;-74
2021/06/13 07:45:47;;;;;;;5.53;4.50;;;;;;;21.70;62.05;98507.66;1764607;79;21087;-75
2021/06/13 07:48:16;;;;;;;7.17;4.25;;;;;;;21.67;62.90;98506.30;1765469;79;21044;-73
2021/06/13 07:50:46;;;;;;;4.45;4.05;;;;;;;21.69;64.17;98505.27;1763496;78;21048;-73
2021/06/13 07:53:19;;;;;;;5.35;4.42;;;;;;;21.81;64.26;98507.55;1777368;78;21064;-74
2021/06/13 07:55:49;;;;;;;6.62;4.28;;;;;;;21.98;63.90;98507.70;1721296;81;21108;-74
2021/06/13 08:01:29;;;;;;;6.90;4.65;;;;;;;22.25;62.55;98511.91;1771824;78;21146;-72
2021/06/13 08:03:56;;;;;;;5.17;4.33;;;;;;;22.43;63.02;98507.23;1806043;77;21611;-74
2021/06/13 08:06:25;;;;;;;9.63;4.92;;;;;;;22.53;61.73;98506.86;1763108;77;21013;-73
2021/06/13 08:08:57;;;;;;;6.80;4.53;;;;;;;22.59;62.39;98510.16;1782889;78;21530;-75
2021/06/13 08:11:31;;;;;;;7.50;4.53;;;;;;;22.72;62.52;98506.14;1791058;78;21059;-75
2021/06/13 08:13:59;;;;;;;9.13;4.15;;;;;;;22.87;62.21;98510.11;1782165;78;21058;-74
2021/06/13 08:16:27;;;;;;;7.58;5.45;;;;;;;22.91;61.05;98507.23;1782525;79;21094;-76
2021/06/13 08:18:55;;;;;;;9.68;4.40;;;;;;;22.77;60.10;98508.28;1771688;80;21642;-77
2021/06/13 08:21:22;;;;;;;9.60;4.25;;;;;;;22.60;60.34;98510.33;1762040;79;21098;-74
2021/06/13 08:23:50;;;;;;;7.78;4.28;;;;;;;22.46;60.41;98504.97;1760085;79;20991;-69
2021/06/13 08:29:39;;;;;;;10.23;4.85;;;;;;;22.52;61.22;98504.66;1722451;80;21540;-72
2021/06/13 08:32:09;;;;;;;5.78;4.60;;;;;;;22.69;61.29;98515.42;1770923;79;20996;-75
2021/06/13 08:34:37;;;;;;;7.30;4.97;;;;;;;22.56;61.13;98515.22;1750569;80;21032;-72
2021/06/13 08:37:03;;;;;;;8.68;4.97;;;;;;;22.42;61.79;98528.88;1767319;80;21449;-72
2021/06/13 08:39:30;;;;;;;6.50;4.97;;;;;;;22.29;62.01;98520.27;1770020;78;21683;-73
2021/06/13 08:41:56;;;;;;;14.03;5.70;;;;;;;22.14;61.46;98522.51;1767539;80;21122;-76
2021/06/13 08:44:25;;;;;;;14.28;6.95;;;;;;;21.92;62.74;98531.20;1764119;80;21062;-66
2021/06/13 08:56:49;;;;;;;10.93;7.33;;;;;;;20.42;70.83;98548.15;1729598;81;21035;-79
2021/06/13 08:59:16;;;;;;;12.20;6.55;;;;;;;20.31;72.17;98562.83;1725642;81;21071;-76
2021/06/13 09:01:44;;;;;;;11.22;6.42;;;;;;;20.33;72.68;98567.41;1728424;81;21131;-76
2021/06/13 09:04:10;;;;;;;15.03;7.05;;;;;;;20.39;73.20;98560.76;1727749;80;21138;-80
2021/06/13 09:06:38;;;;;;;11.95;7.25;;;;;;;20.53;73.90;98550.07;1698495;81;21031;-76
2021/06/13 09:09:20;;;;;;;12.13;6.75;;;;;;;20.71;75.59;98548.52;1726676;81;21717;-77
2021/06/13 09:12:04;;;;;;;15.48;6.40;;;;;;;20.97;76.50;98541.31;1758356;80;21583;-76
2021/06/13 09:14:47;;;;;;;8.10;5.95;;;;;;;21.29;75.32;98533.17;1745032;80;21716;-77
2021/06/13 09:17:21;;;;;;;8.60;5.60;;;;;;;21.37;73.38;98538.09;1761428;80;21041;-76
2021/06/13 09:20:19;;;;;;;9.60;7.12;;;;;;;21.47;73.21;98537.78;1755742;80;21046;-78
2021/06/13 09:23:15;;;;;;;5.87;5.25;;;;;;;21.55;72.58;98539.27;1753601;80;21769;-78
2021/06/13 09:25:44;;;;;;;9.95;5.92;;;;;;;21.57;70.69;98542.46;1754445;80;21505;-76
2021/06/13 09:28:21;;;;;;;10.53;5.40;;;;;;;21.61;70.56;98541.02;1754128;80;21059;-77
2021/06/13 09:30:51;;;;;;;9.58;5.37;;;;;;;21.74;71.10;98530.03;1740573;80;21036;-78
2021/06/13 09:33:23;;;;;;;10.00;4.65;;;;;;;21.94;70.67;98528.02;1760916;80;21070;-76
2021/06/13 09:35:55;;;;;;;10.45;5.35;;;;;;;22.09;69.66;98527.96;1759046;80;21118;-75
2021/06/13 09:38:28;;;;;;;5.50;3.90;;;;;;;22.24;69.68;98531.97;1757174;80;21012;-76
2021/06/13 09:41:01;;;;;;;;;;;;;;;22.38;68.73;98535.94;1762087;80;22134;-75
2021/06/13 09:43:31;;;;;;;5.90;4.27;;;;;;;22.55;68.88;98533.89;1757246;79;20684;-76
2021/06/13 09:46:07;;;;;;;6.85;4.67;;;;;;;22.64;67.49;98527.14;1766694;80;21050;-76
2021/06/13 09:48:46;;;;;;;6.12;4.15;;;;;;;22.61;65.73;98534.41;1759378;80;22282;-77
2021/06/13 09:51:20;;;;;;;5.58;3.92;;;;;;;22.48;65.36;98547.43;1753147;80;21512;-78
2021/06/13 09:53:55;;;;;;;14.53;3.67;;;;;;;22.30;65.38;98544.89;1746438;79;21552;-77
2021/06/13 09:56:40;;;;;;;4.93;2.47;;;;;;;22.13;65.29;98540.53;1720249;80;21615;-77
2021/06/13 09:59:10;;;;;;;5.25;2.55;;;;;;;21.93;65.40;98562.25;1746372;79;21005;-75
2021/06/13 10:01:44;;;;;;;3.45;2.30;;;;;;;21.49;64.71;98561.37;1763998;80;21740;-79
2021/06/13 10:04:28;;;;;;;2.60;2.17;;;;;;;21.10;65.63;98560.57;1762180;80;21094;-77
2021/06/13 10:06:58;;;;;;;3.25;2.27;;;;;;;20.77;66.01;98562.27;1760605;80;21681;-76
2021/06/13 10:09:37;;;;;;;2.05;1.85;;;;;;;20.47;66.48;98574.10;1699420;82;21203;-77
2021/06/13 10:12:12;;;;;;;2.58;1.60;;;;;;;20.28;67.26;98570.64;1755493;80;21034;-77
2021/06/13 10:14:44;;;;;;;3.92;1.50;;;;;;;20.16;68.23;98567.72;1759213;78;22529;-75
2021/06/13 10:17:11;;;;;;;1.57;1.40;;;;;;;20.09;68.47;98575.55;1759163;79;21488;-76
2021/06/13 10:19:45;;;;;;;1.20;1.07;;;;;;;20.01;67.60;98579.56;1752607;80;21001;-76
2021/06/13 10:47:38;;;;;;;1.10;0.90;;;;;;;20.33;65.99;98583.38;1718460;82;21095;-73
2021/06/13 10:57:10;;;;;;;1.80;1.35;;;;;;;20.84;63.33;98589.99;1689899;82;21053;-72
2021/06/13 11:00:00;;;;;;;1.25;0.80;;;;;;;21.08;62.64;98605.02;1696260;83;21153;-70
2021/06/13 11:06:03;;;;;;;8.35;2.92;;;;;;;20.98;60.37;98601.11;1710490;82;21627;-73
2021/06/13 11:11:59;;;;;;;3.17;0.65;;;;;;;20.75;62.20;98587.66;1704933;81;22270;-71
2021/06/13 11:23:38;;;;;;;2.55;0.68;;;;;;;21.31;60.28;98576.19;1656347;85;21100;-75
2021/06/13 11:26:08;;;;;;;4.85;0.62;;;;;;;21.46;59.53;98587.41;1669680;84;21601;-74
2021/06/13 11:28:45;;;;;;;4.25;0.93;;;;;;;21.62;57.51;98595.23;1652711;80;21024;-74
2021/06/13 11:31:20;;;;;;;0.90;0.70;;;;;;;21.68;56.99;98601.78;1764466;80;21962;-74
2021/06/13 11:33:57;;;;;;;2.45;1.10;;;;;;;21.78;57.79;98603.67;1758569;80;21090;-74
2021/06/13 11:36:41;;;;;;;0.53;0.53;;;;;;;21.92;56.99;98602.70;1757048;80;21483;-77
2021/06/13 11:39:16;;;;;;;0.72;0.60;;;;;;;21.96;56.51;98599.85;1754006;79;21487;-74
2021/06/13 11:41:47;;;;;;;4.62;1.80;;;;;;;21.94;55.77;98600.91;1741203;80;21075;-74
2021/06/13 11:44:27;;;;;;;2.00;1.00;;;;;;;21.83;55.40;98601.03;1747157;80;21036;-71
2021/06/13 11:46:54;;;;;;;1.72;0.62;;;;;;;21.74;55.38;98599.50;1757531;80;21070;-73
2021/06/13 11:49:43;;;;;;;1.40;1.12;;;;;;;21.77;56.84;98602.86;1743208;80;21006;-74
2021/06/13 11:52:10;;;;;;;4.20;1.00;;;;;;;21.69;55.08;98611.17;1757753;80;21598;-73
2021/06/13 11:54:44;;;;;;;6.03;0.90;;;;;;;21.28;53.97;98604.41;1746861;80;21067;-80
2021/06/13 11:57:19;;;;;;;7.40;2.40;;;;;;;21.04;55.40;98605.64;1752698;80;21190;-75
2021/06/13 11:59:48;;;;;;;6.08;2.35;;;;;;;20.94;55.44;98612.93;1750271;80;21026;-74
2021/06/13 12:02:22;;;;;;;5.25;2.22;;;;;;;20.92;57.69;98619.52;1723027;80;21031;-75
2021/06/13 12:04:51;;;;;;;5.03;0.67;;;;;;;20.95;56.52;98616.53;1699091;81;21107;-73
2021/06/13 12:07:18;;;;;;;3.35;1.42;;;;;;;20.95;56.89;98617.31;1745433;80;21034;-76
2021/06/13 12:09:49;;;;;;;5.53;2.05;;;;;;;20.97;56.32;98617.70;1751087;80;21675;-73
2021/06/13 12:12:21;;;;;;;4.28;1.65;;;;;;;20.91;54.80;98621.50;1761052;79;21051;-72
2021/06/13 12:14:55;;;;;;;5.15;1.75;;;;;;;20.88;56.86;98633.53;1749434;80;21008;-73
2021/06/13 12:17:56;;;;;;;0.50;0.40;;;;;;;21.00;57.06;98630.09;1581916;88;21694;-73
2021/06/13 12:20:26;;;;;;;1.00;0.42;;;;;;;21.19;55.77;98625.12;1655459;83;21027;-75
2021/06/13 12:23:04;;;;;;;2.08;0.80;;;;;;;21.28;55.11;98630.42;1683583;83;21512;-75
2021/06/13 12:28:30;;;;;;;5.60;0.42;;;;;;;21.03;54.58;98640.45;1678864;83;21099;-73
2021/06/13 12:31:01;;;;;;;1.62;0.55;;;;;;;20.79;55.47;98648.02;1667160;83;21183;-77
2021/06/13 12:33:36;;;;;;;1.07;0.50;;;;;;;20.68;55.90;98650.88;1674301;82;21124;-73
2021/06/13 12:36:09;;;;;;;3.08;0.80;;;;;;;20.63;56.09;98658.31;1694051;83;21116;-73
2021/06/13 12:38:36;;;;;;;1.02;0.85;;;;;;;20.64;56.93;98660.52;1674202;83;21050;-75
2021/06/13 12:41:05;;;;;;;1.20;0.93;;;;;;;20.69;57.70;98664.28;1669824;81;21068;-73
2021/06/13 12:43:48;;;;;;;2.60;0.70;;;;;;;20.70;57.19;98664.46;1744797;79;21535;-75
2021/06/13 12:46:14;;;;;;;6.67;1.05;;;;;;;20.70;57.52;98656.66;1751417;80;20985;-78
2021/06/13 12:48:56;;;;;;;4.40;0.90;;;;;;;20.60;57.37;98660.53;1749791;80;22091;-76
2021/06/13 12:51:24;;;;;;;350.35;252.62;;;;;;;20.55;57.30;98658.97;1756454;80;21087;-74
2021/06/13 12:57:20;;;;;;;457.52;356.68;;;;;;;20.52;56.91;98658.99;1755916;80;21039;-76
2021/06/13 12:59:48;;;;;;;155.18;119.47;;;;;;;20.65;55.00;98662.90;1691504;80;21645;-72
2021/06/13 13:02:16;;;;;;;34.90;28.92;;;;;;;20.62;54.95;98667.92;1727293;81;21989;-71
2021/06/13 13:04:54;;;;;;;30.82;19.52;;;;;;;20.63;54.64;98669.50;1745618;80;20969;-73
2021/06/13 13:07:41;;;;;;;104.47;90.57;;;;;;;20.62;54.49;98670.72;1741686;80;21076;-69
2021/06/13 13:10:23;;;;;;;16.40;14.25;;;;;;;20.46;54.97;98664.80;1743224;80;21100;-67
2021/06/13 13:12:55;;;;;;;12.88;5.92;;;;;;;20.37;55.21;98670.25;1739835;80;21571;-69
2021/06/13 13:15:25;;;;;;;19.80;3.90;;;;;;;20.36;55.48;98670.66;1742625;80;21087;-70
2021/06/13 13:18:16;;;;;;;3.30;1.50;;;;;;;20.40;55.66;98675.02;1700364;80;20976;-66
2021/06/13 13:21:03;;;;;;;5.00;3.90;;;;;;;20.42;54.99;98676.81;1670181;83;21598;-75
2021/06/13 13:24:28;;;;;;;14.55;11.65;;;;;;;20.32;55.76;98674.87;1659485;84;21084;-73